Time;durP1;ratioP1;P1;durP2;ratioP2;P2;SDS_P1;SDS_P2;PMS_P1;PMS_P2;Temp;Humidity;BMP_temperature;BMP_pressure;BME280_temperature;BME280_humidity;BME280_pressure;Samples;Min_cycle;Max_cycle;Signal;HPM_P1;HPM_P2
2022/04/21 00:01:01;;;;;;;15.52;9.50;;;;;;;5.63;56.24;99533.69;4463555;32;35922;-83
2022/04/21 00:03:47;;;;;;;14.98;9.13;;;;;;;5.53;56.51;99539.19;4463235;32;34269;-84
2022/04/21 00:06:33;;;;;;;18.62;10.77;;;;;;;5.50;56.76;99535.13;4463421;32;34279;-83
2022/04/21 00:09:20;;;;;;;17.23;9.32;;;;;;;5.37;57.17;99535.72;4463706;32;34073;-83
2022/04/21 00:12:06;;;;;;;15.40;10.02;;;;;;;5.20;58.54;99538.78;4452243;32;34537;-83
2022/04/21 00:14:53;;;;;;;16.30;9.48;;;;;;;5.54;57.02;99528.03;4462780;32;34430;-83
2022/04/21 00:17:39;;;;;;;16.58;10.43;;;;;;;5.55;56.84;99529.66;4464008;32;33697;-83
2022/04/21 00:20:26;;;;;;;17.65;10.85;;;;;;;4.41;61.23;99533.03;4463553;32;35475;-84
2022/04/21 00:23:28;;;;;;;19.52;12.25;;;;;;;5.07;59.48;99532.06;4463546;32;34950;-83
2022/04/21 00:26:15;;;;;;;;;;;;;;;5.34;58.50;99528.94;4465090;32;35405;-83
2022/04/21 00:29:01;;;;;;;18.73;11.57;;;;;;;4.81;60.32;99525.91;4464935;32;34180;-83
2022/04/21 00:31:48;;;;;;;19.30;12.43;;;;;;;5.06;59.91;99529.59;4463588;32;37273;-83
2022/04/21 00:34:34;;;;;;;20.75;11.73;;;;;;;5.00;60.15;99530.72;4463806;32;35092;-83
2022/04/21 00:37:21;;;;;;;17.95;11.57;;;;;;;5.05;59.80;99522.56;4451968;32;35651;-83
2022/04/21 00:40:08;;;;;;;19.37;10.77;;;;;;;4.59;61.00;99517.25;4464254;32;34470;-83
2022/04/21 00:42:55;;;;;;;17.90;10.32;;;;;;;5.11;59.73;99522.25;4457453;32;34273;-83
2022/04/21 00:45:42;;;;;;;18.98;11.43;;;;;;;5.03;59.80;99520.09;4463126;32;36037;-83
2022/04/21 00:48:29;;;;;;;21.12;11.40;;;;;;;4.30;62.75;99525.97;4464076;32;34715;-83
2022/04/21 00:51:16;;;;;;;16.27;10.57;;;;;;;3.76;64.51;99519.16;4461926;32;34807;-84
2022/04/21 00:54:02;;;;;;;17.50;10.68;;;;;;;4.04;63.75;99523.25;4463093;32;35283;-83
2022/04/21 00:56:50;;;;;;;18.85;10.57;;;;;;;4.68;61.54;99521.84;4442577;32;35886;-83
2022/04/21 00:59:37;;;;;;;17.58;11.48;;;;;;;4.14;63.36;99513.50;4463920;32;34827;-83
2022/04/21 01:05:31;;;;;;;18.02;11.07;;;;;;;4.46;62.37;99515.91;4454042;32;34539;-83
2022/04/21 01:08:17;;;;;;;18.73;11.65;;;;;;;4.21;63.15;99519.44;4462399;32;35830;-83
2022/04/21 01:11:04;;;;;;;18.40;11.82;;;;;;;3.59;64.18;99519.41;4462543;32;34550;-83
2022/04/21 01:13:50;;;;;;;17.90;10.77;;;;;;;4.71;61.45;99520.47;4464044;32;34116;-82
2022/04/21 01:16:36;;;;;;;18.77;10.85;;;;;;;4.12;63.57;99524.59;4464567;32;34614;-83
2022/04/21 01:19:23;;;;;;;20.92;12.13;;;;;;;3.95;63.81;99516.72;4462728;32;34560;-82
2022/04/21 01:22:10;;;;;;;17.55;10.52;;;;;;;3.75;64.13;99514.00;4463622;32;34622;-83
2022/04/21 01:24:56;;;;;;;18.55;11.20;;;;;;;4.59;61.68;99504.50;4463903;32;35115;-83
2022/04/21 01:27:43;;;;;;;20.23;11.52;;;;;;;4.79;60.59;99500.13;4463219;32;34179;-83
2022/04/21 01:30:29;;;;;;;15.90;10.63;;;;;;;4.56;61.21;99507.75;4464223;32;36023;-83
2022/04/21 01:33:16;;;;;;;19.83;10.52;;;;;;;4.59;61.22;99517.25;4463741;32;34780;-82
2022/04/21 01:36:03;;;;;;;21.58;12.20;;;;;;;4.48;61.44;99509.12;4463709;32;33996;-82
2022/04/21 01:41:57;;;;;;;20.50;10.93;;;;;;;4.69;61.09;99503.66;4462890;32;34900;-83
2022/04/21 01:44:43;;;;;;;17.10;11.48;;;;;;;4.41;61.68;99505.06;4462805;32;34512;-82
2022/04/21 01:47:30;;;;;;;20.02;11.88;;;;;;;4.45;61.75;99508.88;4462029;32;34941;-83
2022/04/21 01:50:16;;;;;;;20.58;10.82;;;;;;;4.29;62.22;99502.62;4463224;32;34577;-82
2022/04/21 01:53:02;;;;;;;17.83;11.05;;;;;;;4.21;63.05;99506.72;4452370;32;34971;-83
2022/04/21 01:55:49;;;;;;;18.95;11.98;;;;;;;4.43;62.14;99497.47;4461002;32;34619;-83
2022/04/21 01:58:35;;;;;;;18.87;11.18;;;;;;;4.78;60.99;99507.44;4465102;32;35208;-83
2022/04/21 02:01:21;;;;;;;19.85;12.00;;;;;;;4.37;61.17;99499.38;4462375;32;35265;-83
2022/04/21 02:04:08;;;;;;;19.10;11.18;;;;;;;3.69;65.48;99496.13;4464300;32;34458;-82
2022/04/21 02:06:54;;;;;;;22.10;11.93;;;;;;;4.26;63.54;99489.63;4461423;32;34611;-82
2022/04/21 02:09:41;;;;;;;18.65;11.15;;;;;;;4.64;61.56;99496.34;4463732;32;35141;-82
2022/04/21 02:12:28;;;;;;;19.70;11.45;;;;;;;4.31;62.39;99488.81;4462239;32;34572;-82
2022/04/21 02:15:17;;;;;;;20.80;12.10;;;;;;;4.26;62.51;99490.44;4463408;32;34566;-82
2022/04/21 02:18:04;;;;;;;17.95;11.10;;;;;;;4.34;62.14;99485.56;4463686;32;33522;-82
2022/04/21 02:20:51;;;;;;;18.48;10.98;;;;;;;4.33;62.24;99478.50;4461733;32;33991;-82
2022/04/21 02:23:37;;;;;;;20.83;12.52;;;;;;;4.31;61.89;99470.62;4462874;32;34190;-82
2022/04/21 02:26:24;;;;;;;19.70;11.93;;;;;;;4.18;62.34;99473.91;4462054;32;35930;-82
2022/04/21 02:29:10;;;;;;;18.52;11.63;;;;;;;3.20;66.75;99483.00;4461413;32;35688;-82
2022/04/21 02:31:57;;;;;;;20.60;11.05;;;;;;;3.90;64.10;99477.97;4462959;32;34184;-82
2022/04/21 02:34:43;;;;;;;16.23;10.00;;;;;;;4.17;62.84;99470.38;4464001;32;34169;-82
2022/04/21 02:37:37;;;;;;;17.85;10.85;;;;;;;4.56;61.79;99477.91;4451388;32;34936;-82
2022/04/21 02:40:23;;;;;;;18.83;11.12;;;;;;;4.39;61.66;99480.94;4464374;32;36375;-82
2022/04/21 02:43:10;;;;;;;21.80;11.07;;;;;;;4.53;61.48;99478.47;4463957;32;35019;-82
2022/04/21 02:45:56;;;;;;;20.45;11.12;;;;;;;4.34;62.57;99475.50;4463191;32;34635;-82
2022/04/21 02:48:45;;;;;;;21.08;11.88;;;;;;;4.58;62.16;99475.75;4463183;32;34352;-83
2022/04/21 02:51:31;;;;;;;19.77;11.90;;;;;;;4.42;62.41;99474.97;4463284;32;34447;-82
2022/04/21 02:57:24;;;;;;;21.15;12.27;;;;;;;4.49;61.69;99475.47;4465103;32;34642;-82
2022/04/21 03:00:11;;;;;;;21.73;12.15;;;;;;;4.08;63.19;99471.22;4453047;32;34885;-82
2022/04/21 03:02:57;;;;;;;19.70;11.95;;;;;;;3.82;64.42;99473.91;4464670;32;35410;-82
2022/04/21 03:05:44;;;;;;;22.73;13.45;;;;;;;3.79;64.65;99480.69;4464346;32;34102;-81
2022/04/21 03:08:30;;;;;;;21.70;13.45;;;;;;;3.88;64.41;99472.84;4462365;32;34551;-82
2022/04/21 03:11:17;;;;;;;22.27;12.43;;;;;;;3.94;64.24;99474.44;4464168;32;34971;-82
2022/04/21 03:14:03;;;;;;;21.62;12.35;;;;;;;3.71;65.07;99475.81;4464296;32;34259;-82
2022/04/21 03:16:49;;;;;;;23.38;12.77;;;;;;;3.68;65.23;99470.91;4464222;32;34201;-82
2022/04/21 03:19:36;;;;;;;22.20;13.18;;;;;;;2.66;68.05;99471.41;4464966;32;35529;-82
2022/04/21 03:25:32;;;;;;;23.58;13.52;;;;;;;2.17;73.30;99471.66;4465005;32;34295;-82
2022/04/21 03:28:18;;;;;;;22.50;13.62;;;;;;;2.89;69.98;99477.47;4464158;32;35398;-83
2022/04/21 03:31:04;;;;;;;24.70;13.45;;;;;;;2.59;69.60;99478.13;4453486;32;34594;-82
2022/04/21 03:33:51;;;;;;;22.70;13.55;;;;;;;3.21;67.97;99481.91;4464135;32;35900;-82
2022/04/21 03:36:37;;;;;;;21.75;12.40;;;;;;;3.58;66.47;99479.84;4465610;32;34681;-82
2022/04/21 03:39:24;;;;;;;19.83;12.27;;;;;;;3.46;66.02;99473.84;4463615;32;35111;-81
2022/04/21 03:42:25;;;;;;;20.50;12.45;;;;;;;1.97;71.65;99483.16;4464713;32;34704;-81
2022/04/21 03:45:11;;;;;;;21.20;12.40;;;;;;;2.67;70.23;99485.75;4463445;32;35019;-81
2022/04/21 03:47:58;;;;;;;23.52;12.63;;;;;;;3.63;66.35;99478.22;4463937;32;35653;-81
2022/04/21 03:50:45;;;;;;;24.17;12.45;;;;;;;3.91;64.61;99480.41;4465155;32;35148;-82
2022/04/21 03:53:31;;;;;;;22.30;12.95;;;;;;;4.19;63.23;99475.53;4462621;32;34377;-81
2022/04/21 03:56:17;;;;;;;21.37;12.30;;;;;;;4.10;63.45;99466.31;4463690;32;36664;-82
2022/04/21 03:59:09;;;;;;;22.33;12.82;;;;;;;3.94;64.06;99476.34;4463712;32;34223;-81
2022/04/21 04:02:02;;;;;;;21.65;12.50;;;;;;;4.10;63.48;99483.41;4464817;32;33330;-81
2022/04/21 04:04:48;;;;;;;22.55;11.98;;;;;;;4.14;63.20;99491.81;4463981;32;35550;-81
2022/04/21 04:10:52;;;;;;;19.08;11.25;;;;;;;3.99;63.61;99496.16;4465609;32;34735;-81
2022/04/21 04:13:38;;;;;;;22.05;12.57;;;;;;;3.91;64.02;99496.69;4463227;32;35194;-82
2022/04/21 04:16:25;;;;;;;19.33;11.88;;;;;;;3.94;64.21;99503.47;4464433;32;34306;-81
2022/04/21 04:19:11;;;;;;;21.52;12.50;;;;;;;3.99;64.22;99492.63;4464299;32;34865;-82
2022/04/21 04:21:57;;;;;;;24.20;12.88;;;;;;;3.78;64.97;99494.50;4463616;32;35379;-81
2022/04/21 04:24:44;;;;;;;22.35;12.70;;;;;;;3.19;67.99;99497.59;4463307;32;34414;-81
2022/04/21 04:27:30;;;;;;;20.15;12.18;;;;;;;2.61;70.15;99497.63;4462941;32;35399;-82
2022/04/21 04:30:17;;;;;;;24.25;13.68;;;;;;;2.01;73.29;99510.47;4464180;32;34921;-81
2022/04/21 04:33:03;;;;;;;21.30;12.40;;;;;;;1.28;78.06;99513.56;4464827;32;35717;-82
2022/04/21 04:35:49;;;;;;;22.30;12.88;;;;;;;2.38;73.61;99513.16;4464066;32;34048;-81
2022/04/21 04:38:37;;;;;;;22.45;12.52;;;;;;;3.33;69.51;99515.00;4464551;32;35440;-81
2022/04/21 04:44:28;;;;;;;21.25;12.82;;;;;;;4.04;66.61;99509.72;4464196;32;34389;-82
2022/04/21 04:47:15;;;;;;;23.50;12.68;;;;;;;4.14;66.18;99513.50;4450670;32;33902;-82
2022/04/21 04:50:02;;;;;;;21.62;12.70;;;;;;;4.34;64.95;99509.97;4462291;32;35600;-82
2022/04/21 04:52:48;;;;;;;22.52;13.43;;;;;;;4.34;65.00;99518.91;4463037;32;34330;-82
2022/04/21 04:55:35;;;;;;;25.10;14.70;;;;;;;4.44;64.58;99510.78;4462425;32;35233;-83
2022/04/21 04:58:22;;;;;;;26.60;14.02;;;;;;;4.49;64.52;99504.50;4463451;32;33919;-83
2022/04/21 05:01:08;;;;;;;26.30;14.48;;;;;;;4.63;64.06;99510.19;4463558;32;35000;-82
2022/04/21 05:04:14;;;;;;;23.83;14.50;;;;;;;3.14;69.95;99512.78;4463368;32;35949;-82
2022/04/21 05:07:01;;;;;;;27.85;15.15;;;;;;;4.20;67.17;99515.94;4464795;32;35583;-83
2022/04/21 05:09:47;;;;;;;24.23;14.13;;;;;;;4.12;66.83;99515.66;4464413;32;35179;-83
2022/04/21 05:12:33;;;;;;;22.35;13.23;;;;;;;4.23;67.76;99512.66;4460529;32;34616;-83
2022/04/21 05:15:20;;;;;;;20.40;13.02;;;;;;;3.84;68.75;99515.09;4464387;32;35287;-83
2022/04/21 05:18:07;;;;;;;20.60;12.73;;;;;;;3.78;70.02;99511.56;4463323;32;34642;-83
2022/04/21 05:20:53;;;;;;;21.42;12.35;;;;;;;3.85;69.14;99521.34;4459205;32;33926;-83
2022/04/21 05:23:40;;;;;;;19.45;12.07;;;;;;;4.08;68.92;99515.41;4461979;32;34548;-83
2022/04/21 05:26:31;;;;;;;21.83;12.10;;;;;;;3.85;68.55;99516.75;4459869;32;34419;-83
2022/04/21 05:32:26;;;;;;;20.58;11.73;;;;;;;4.68;67.75;99504.75;4462148;32;34162;-83
2022/04/21 05:35:13;;;;;;;17.40;10.93;;;;;;;4.83;67.47;99512.03;4452220;32;34186;-83
2022/04/21 05:38:00;;;;;;;18.98;11.15;;;;;;;5.09;66.63;99510.03;4464317;32;36035;-83
2022/04/21 05:40:47;;;;;;;18.45;10.75;;;;;;;4.71;66.27;99502.28;4460176;32;34658;-83
2022/04/21 05:43:44;;;;;;;23.23;13.05;;;;;;;4.69;66.07;99509.06;4458952;32;33813;-83
2022/04/21 05:46:30;;;;;;;22.33;13.85;;;;;;;4.89;66.12;99498.16;4460723;32;34566;-83
2022/04/21 05:49:17;;;;;;;20.88;13.80;;;;;;;4.86;65.07;99504.13;4458496;32;34917;-83
2022/04/21 05:52:05;;;;;;;19.60;12.68;;;;;;;5.25;64.65;99500.75;4462601;32;35643;-83
2022/04/21 05:54:52;;;;;;;19.45;11.43;;;;;;;5.77;62.59;99499.34;4462148;32;33836;-82
2022/04/21 05:57:40;;;;;;;17.65;10.80;;;;;;;5.89;61.10;99503.59;4462939;32;35430;-82
2022/04/21 06:00:27;;;;;;;19.60;12.82;;;;;;;5.90;61.90;99506.06;4458637;32;33973;-82
2022/04/21 06:03:13;;;;;;;16.98;11.12;;;;;;;6.03;61.77;99510.06;4457010;32;34698;-82
2022/04/21 06:05:59;;;;;;;17.95;11.43;;;;;;;6.23;60.55;99506.34;4460867;32;34194;-82
2022/04/21 06:08:46;;;;;;;18.90;12.30;;;;;;;6.67;58.67;99499.97;4463589;32;35533;-82
2022/04/21 06:11:33;;;;;;;24.60;11.82;;;;;;;7.57;55.12;99501.88;4457326;32;35642;-81
2022/04/21 06:14:20;;;;;;;19.42;12.10;;;;;;;7.21;55.06;99494.16;4462242;32;35688;-82
2022/04/21 06:17:06;;;;;;;16.95;11.02;;;;;;;7.83;53.83;99494.12;4461926;32;35396;-82
2022/04/21 06:19:53;;;;;;;17.83;10.40;;;;;;;7.77;52.82;99502.66;4461792;32;35471;-81
2022/04/21 06:22:40;;;;;;;14.85;9.55;;;;;;;8.32;51.65;99494.69;4461973;32;35980;-84
2022/04/21 06:25:26;;;;;;;16.80;9.40;;;;;;;8.46;51.00;99502.94;4461398;32;34631;-84
2022/04/21 06:28:14;;;;;;;16.05;8.75;;;;;;;8.70;50.03;99491.84;4464646;32;33782;-84
2022/04/21 06:31:00;;;;;;;15.10;7.87;;;;;;;8.98;49.02;99488.03;4452658;32;35452;-83
2022/04/21 06:33:46;;;;;;;11.85;8.00;;;;;;;9.16;48.83;99488.22;4461178;32;35972;-83
2022/04/21 06:36:33;;;;;;;13.52;8.82;;;;;;;8.96;50.72;99483.97;4464432;32;35040;-83
2022/04/21 06:39:19;;;;;;;13.75;9.40;;;;;;;9.61;48.81;99482.87;4465481;32;34258;-83
2022/04/21 06:42:06;;;;;;;13.90;8.45;;;;;;;9.66;48.63;99485.50;4455961;32;35431;-84
2022/04/21 06:48:04;;;;;;;13.45;7.37;;;;;;;10.66;46.94;99485.22;4462684;32;34696;-83
2022/04/21 06:50:50;;;;;;;10.88;6.90;;;;;;;11.00;47.08;99481.00;4464543;32;34213;-83
2022/04/21 06:53:39;;;;;;;15.95;7.43;;;;;;;11.44;44.67;99471.78;4462277;32;36499;-83
2022/04/21 06:56:25;;;;;;;10.65;6.10;;;;;;;11.44;45.12;99466.28;4460056;32;35932;-83
2022/04/21 06:59:13;;;;;;;9.68;6.50;;;;;;;11.23;45.20;99471.56;4464630;32;34234;-84
2022/04/21 07:01:59;;;;;;;9.50;4.90;;;;;;;11.57;45.94;99472.75;4464155;32;34176;-83
2022/04/21 07:04:46;;;;;;;10.23;4.80;;;;;;;11.05;45.20;99474.59;4462845;32;34050;-84
2022/04/21 07:07:33;;;;;;;7.22;4.28;;;;;;;11.90;44.02;99467.63;4464138;32;34964;-83
2022/04/21 07:10:21;;;;;;;6.15;3.80;;;;;;;11.44;44.07;99468.19;4464292;32;34815;-84
2022/04/21 07:13:09;;;;;;;6.43;3.85;;;;;;;11.57;43.77;99461.78;4452579;32;34058;-82
2022/04/21 07:15:55;;;;;;;8.02;4.00;;;;;;;11.62;43.99;99460.81;4462334;32;34601;-84
2022/04/21 07:18:42;;;;;;;6.82;4.30;;;;;;;11.68;42.99;99462.25;4461938;32;35633;-84
2022/04/21 07:21:29;;;;;;;7.15;3.50;;;;;;;12.43;41.60;99471.09;4463563;32;35584;-82
2022/04/21 07:24:15;;;;;;;7.87;3.40;;;;;;;12.62;40.61;99464.41;4462363;32;34730;-81
2022/04/21 07:27:01;;;;;;;4.32;3.00;;;;;;;12.79;39.73;99464.34;4463232;32;34722;-83
2022/04/21 07:29:48;;;;;;;4.20;3.28;;;;;;;13.14;38.33;99464.97;4462362;32;35472;-82
2022/04/21 07:32:35;;;;;;;11.55;3.85;;;;;;;12.50;40.41;99463.16;4462194;32;35491;-82
2022/04/21 07:35:22;;;;;;;6.07;3.20;;;;;;;12.77;37.48;99461.91;4451824;32;33956;-82
2022/04/21 07:38:10;;;;;;;4.47;2.87;;;;;;;12.31;37.69;99457.22;4461701;32;35631;-82
2022/04/21 07:40:57;;;;;;;5.47;3.12;;;;;;;12.50;37.64;99457.66;4462056;32;35025;-82
2022/04/21 07:43:44;;;;;;;8.05;3.70;;;;;;;12.66;37.86;99468.09;4460381;32;35428;-82
2022/04/21 07:46:32;;;;;;;4.75;3.03;;;;;;;13.34;37.16;99454.38;4463203;32;34339;-82
2022/04/21 07:55:34;;;;;;;7.22;3.90;;;;;;;12.71;37.69;99468.75;4464004;32;35509;-80
2022/04/21 07:58:25;;;;;;;4.95;3.47;;;;;;;13.35;38.34;99470.56;4462235;32;35008;-79
2022/04/21 08:01:12;;;;;;;4.93;3.58;;;;;;;13.83;35.80;99455.47;4466157;32;34256;-80
2022/04/21 08:04:02;;;;;;;6.55;3.80;;;;;;;13.85;36.16;99455.94;4463690;32;35953;-80
2022/04/21 08:06:49;;;;;;;8.50;4.07;;;;;;;14.09;36.89;99460.75;4468160;32;34837;-79
2022/04/21 08:09:35;;;;;;;6.97;3.80;;;;;;;13.83;35.75;99452.72;4469794;32;34410;-80
2022/04/21 08:12:22;;;;;;;5.72;3.45;;;;;;;14.25;33.86;99457.34;4470624;32;34657;-80
2022/04/21 08:15:10;;;;;;;5.53;3.12;;;;;;;12.88;36.27;99451.34;4472218;32;34988;-81
2022/04/21 08:17:58;;;;;;;5.35;3.70;;;;;;;13.34;36.42;99457.12;4469212;32;34621;-80
2022/04/21 08:20:46;;;;;;;6.20;3.50;;;;;;;13.43;37.28;99458.69;4465091;32;35241;-82
2022/04/21 08:23:36;;;;;;;6.47;3.58;;;;;;;13.67;34.71;99462.72;4460964;32;34908;-83
2022/04/21 08:32:51;;;;;;;5.90;3.80;;;;;;;14.09;34.93;99463.50;4465346;32;34216;-84
2022/04/21 08:35:38;;;;;;;6.50;3.95;;;;;;;13.73;34.87;99464.12;4468953;32;34199;-79
2022/04/21 08:38:28;;;;;;;8.23;4.18;;;;;;;14.07;34.91;99464.97;4467781;32;33580;-84
2022/04/21 08:41:18;;;;;;;6.50;4.37;;;;;;;13.81;35.37;99455.00;4463098;32;34194;-82
2022/04/21 08:44:04;;;;;;;6.47;4.32;;;;;;;13.09;36.84;99450.59;4463226;32;35181;-83
2022/04/21 08:46:51;;;;;;;7.20;4.12;;;;;;;13.78;36.39;99458.44;4469340;32;35466;-83
2022/04/21 08:49:39;;;;;;;5.15;3.00;;;;;;;14.20;35.32;99465.81;4458174;32;34625;-78
2022/04/21 08:52:25;;;;;;;3.62;2.75;;;;;;;14.32;34.89;99458.41;4464000;32;35550;-78
2022/04/21 08:55:12;;;;;;;6.18;3.28;;;;;;;13.47;34.50;99467.87;4463475;32;33750;-79
2022/04/21 08:57:59;;;;;;;5.07;3.08;;;;;;;13.80;32.87;99474.59;4466239;32;34396;-79
2022/04/21 09:00:46;;;;;;;4.80;3.30;;;;;;;13.92;33.81;99478.22;4468366;32;33973;-83
2022/04/21 09:03:35;;;;;;;5.30;3.60;;;;;;;14.31;32.16;99472.50;4467979;32;34953;-79
2022/04/21 09:06:22;;;;;;;6.65;4.25;;;;;;;14.47;31.68;99467.16;4467240;32;35335;-79
2022/04/21 09:09:21;;;;;;;8.95;4.65;;;;;;;13.89;34.31;99475.34;4465233;32;35480;-79
2022/04/21 09:12:18;;;;;;;5.18;3.72;;;;;;;14.60;33.92;99463.34;4468067;32;35533;-79
2022/04/21 09:15:18;;;;;;;6.45;4.10;;;;;;;14.48;33.60;99466.00;4467943;32;34614;-80
2022/04/21 09:18:10;;;;;;;6.43;3.60;;;;;;;15.05;33.53;99466.00;4454055;32;34145;-76
2022/04/21 09:20:56;;;;;;;;;;;;;;;14.69;31.72;99461.28;4465873;32;34592;-78
2022/04/21 09:23:44;;;;;;;5.70;3.72;;;;;;;14.72;32.24;99466.09;4466083;32;36018;-76
2022/04/21 09:26:30;;;;;;;7.20;4.70;;;;;;;14.63;33.00;99462.66;4467587;32;34108;-77
2022/04/21 09:29:25;;;;;;;7.35;4.28;;;;;;;14.15;32.89;99467.66;4468731;32;35264;-75
2022/04/21 09:32:16;;;;;;;5.82;3.55;;;;;;;14.48;33.42;99469.56;4461998;32;34938;-76
2022/04/21 09:35:04;;;;;;;9.13;3.92;;;;;;;14.97;32.16;99468.88;4457030;32;35894;-75
2022/04/21 09:37:53;;;;;;;7.28;3.75;;;;;;;14.26;32.34;99470.78;4456101;32;35491;-78
2022/04/21 09:40:44;;;;;;;5.97;3.70;;;;;;;14.37;33.91;99473.91;4461927;32;32977;-76
2022/04/21 09:43:37;;;;;;;6.68;4.20;;;;;;;14.72;33.54;99473.56;4466377;32;34769;-77
2022/04/21 09:46:24;;;;;;;7.82;4.20;;;;;;;15.30;33.16;99461.25;4469556;32;35294;-76
2022/04/21 09:49:14;;;;;;;6.40;4.30;;;;;;;15.63;32.59;99453.97;4467594;32;34601;-75
2022/04/21 09:52:00;;;;;;;6.93;4.03;;;;;;;15.29;33.55;99456.91;4465075;32;34202;-76
2022/04/21 09:54:47;;;;;;;5.32;3.97;;;;;;;15.85;33.06;99444.37;4468633;32;35509;-75
2022/04/21 09:57:34;;;;;;;6.43;3.37;;;;;;;16.30;30.72;99449.56;4469774;32;36031;-75
2022/04/21 10:00:21;;;;;;;4.93;3.53;;;;;;;16.07;31.41;99452.09;4467739;32;35695;-78
2022/04/21 10:03:08;;;;;;;5.30;3.55;;;;;;;16.30;30.23;99449.56;4456110;32;34935;-78
2022/04/21 10:05:55;;;;;;;5.12;3.40;;;;;;;16.41;30.33;99444.34;4465593;32;34633;-77
2022/04/21 10:08:43;;;;;;;4.75;3.30;;;;;;;15.17;31.13;99436.78;4467612;32;35050;-77
2022/04/21 10:11:29;;;;;;;4.60;3.50;;;;;;;15.67;31.77;99441.06;4465203;32;34657;-78
2022/04/21 10:14:17;;;;;;;15.90;3.72;;;;;;;16.92;29.20;99438.13;4466870;32;35038;-78
2022/04/21 10:17:07;;;;;;;5.07;3.35;;;;;;;16.94;30.15;99444.94;4465503;32;35486;-78
2022/04/21 10:19:54;;;;;;;5.60;3.80;;;;;;;16.33;29.76;99440.56;4466737;32;34717;-77
2022/04/21 10:22:45;;;;;;;6.12;3.55;;;;;;;15.72;29.80;99441.66;4464872;32;34856;-76
2022/04/21 10:25:37;;;;;;;6.70;4.00;;;;;;;14.49;32.41;99442.84;4455372;32;34171;-77
2022/04/21 10:28:40;;;;;;;8.40;3.97;;;;;;;15.20;31.76;99422.31;4453678;32;34684;-77
2022/04/21 10:31:31;;;;;;;7.05;4.18;;;;;;;15.58;33.48;99429.34;4465227;32;35016;-76
2022/04/21 10:34:36;;;;;;;6.07;3.95;;;;;;;16.23;30.36;99423.72;4463725;32;34637;-78
2022/04/21 10:37:32;;;;;;;7.97;4.15;;;;;;;17.07;28.94;99426.25;4466756;32;34198;-79
2022/04/21 10:40:23;;;;;;;6.43;3.87;;;;;;;17.53;26.72;99430.06;4466313;32;36013;-79
2022/04/21 10:43:11;;;;;;;7.32;4.28;;;;;;;17.71;28.79;99418.56;4465475;32;35012;-78
2022/04/21 10:46:04;;;;;;;7.30;4.25;;;;;;;17.77;27.44;99404.03;4466173;32;34622;-79
2022/04/21 10:48:51;;;;;;;7.95;4.12;;;;;;;17.83;26.60;99412.91;4465936;32;34063;-79
2022/04/21 10:57:55;;;;;;;6.78;4.30;;;;;;;17.06;30.21;99396.97;4466737;32;34827;-76
2022/04/21 11:00:42;;;;;;;7.18;4.35;;;;;;;17.45;28.44;99397.84;4466272;32;34398;-75
2022/04/21 11:03:28;;;;;;;7.80;4.20;;;;;;;17.24;29.19;99398.16;4466686;32;34675;-76
2022/04/21 11:06:15;;;;;;;8.50;4.10;;;;;;;17.31;30.05;99397.53;4466778;32;34948;-76
2022/04/21 11:09:01;;;;;;;8.45;4.80;;;;;;;16.82;30.47;99393.25;4467677;32;35485;-77
2022/04/21 11:11:48;;;;;;;7.57;4.93;;;;;;;17.82;28.32;99393.88;4469592;32;34145;-77
2022/04/21 11:14:36;;;;;;;6.32;3.97;;;;;;;17.17;29.42;99397.22;4457715;32;34674;-77
2022/04/21 11:17:23;;;;;;;6.87;4.45;;;;;;;17.25;29.90;99390.69;4457464;32;35303;-76
2022/04/21 11:20:25;;;;;;;7.85;4.68;;;;;;;18.13;28.02;99393.69;4455836;32;34671;-77
2022/04/21 11:23:24;;;;;;;6.97;4.43;;;;;;;17.84;28.83;99392.31;4463287;32;34108;-77
2022/04/21 11:26:10;;;;;;;6.70;4.87;;;;;;;17.42;29.71;99384.72;4457342;32;35468;-78
2022/04/21 11:29:02;;;;;;;6.22;4.57;;;;;;;16.61;30.07;99382.44;4469432;32;36137;-77
2022/04/21 11:31:48;;;;;;;;;;;;;;;16.50;30.51;99380.56;4470688;32;33714;-77
2022/04/21 11:34:35;;;;;;;8.55;3.90;;;;;;;16.94;30.22;99380.47;4468484;32;34904;-80
2022/04/21 11:37:22;;;;;;;8.15;4.60;;;;;;;18.01;29.05;99373.63;4459866;32;35120;-77
2022/04/21 11:40:28;;;;;;;6.40;3.90;;;;;;;17.15;28.94;99377.38;4469083;32;34977;-76
2022/04/21 11:43:16;;;;;;;5.75;4.00;;;;;;;16.74;30.00;99363.78;4469430;32;34481;-77
2022/04/21 11:46:09;;;;;;;5.18;3.62;;;;;;;17.06;31.04;99370.09;4469508;32;34160;-76
2022/04/21 11:48:58;;;;;;;8.20;3.70;;;;;;;17.65;30.50;99373.72;4469730;32;35549;-75
2022/04/21 11:51:44;;;;;;;5.47;3.70;;;;;;;18.76;25.91;99366.66;4469691;32;34986;-76
2022/04/21 11:54:31;;;;;;;4.78;3.78;;;;;;;19.12;25.37;99358.84;4470681;32;35719;-76
2022/04/21 11:57:18;;;;;;;6.35;4.22;;;;;;;19.00;26.95;99368.19;4469662;32;34390;-76
2022/04/21 12:00:04;;;;;;;8.68;4.00;;;;;;;18.31;27.61;99360.72;4469878;32;35560;-76
2022/04/21 12:09:07;;;;;;;5.07;3.50;;;;;;;17.02;29.40;99360.91;4469763;32;35078;-76
2022/04/21 12:11:55;;;;;;;5.12;3.65;;;;;;;18.23;26.93;99353.44;4467894;32;34590;-76
2022/04/21 12:14:43;;;;;;;7.18;3.33;;;;;;;19.49;25.42;99336.72;4469814;32;36015;-76
2022/04/21 12:17:33;;;;;;;5.35;3.50;;;;;;;19.49;26.48;99345.84;4469487;32;34682;-77
2022/04/21 12:20:19;;;;;;;6.10;4.18;;;;;;;19.66;23.94;99335.34;4469757;32;34255;-77
2022/04/21 12:23:07;;;;;;;8.18;4.07;;;;;;;19.54;26.20;99342.75;4458924;32;34598;-77
2022/04/21 12:25:57;;;;;;;6.43;4.00;;;;;;;20.11;24.50;99337.03;4461844;32;35897;-77
2022/04/21 12:28:47;;;;;;;5.17;3.73;;;;;;;20.55;24.89;99327.94;4459211;32;34576;-77
2022/04/21 12:31:56;;;;;;;5.20;3.53;;;;;;;18.69;27.12;99334.00;4469525;32;34145;-76
2022/04/21 12:34:43;;;;;;;5.32;3.80;;;;;;;18.88;26.20;99325.59;4469422;32;34558;-78
2022/04/21 12:37:31;;;;;;;5.60;4.28;;;;;;;19.54;25.38;99326.06;4468918;32;35054;-78
2022/04/21 12:40:17;;;;;;;7.15;4.30;;;;;;;19.62;25.77;99326.16;4469383;32;35445;-77
2022/04/21 12:43:06;;;;;;;5.80;4.32;;;;;;;19.20;25.87;99330.00;4470401;32;34242;-76
2022/04/21 12:45:54;;;;;;;6.72;4.25;;;;;;;19.32;27.49;99322.25;4459860;32;34874;-76
2022/04/21 12:48:48;;;;;;;6.07;3.50;;;;;;;18.07;28.08;99330.56;4468461;32;35970;-76
2022/04/21 12:51:35;;;;;;;6.87;4.05;;;;;;;18.71;27.99;99328.88;4469421;32;35667;-77
2022/04/21 12:54:28;;;;;;;8.93;4.18;;;;;;;19.64;25.82;99327.38;4469731;32;34455;-76
2022/04/21 12:57:14;;;;;;;4.35;3.60;;;;;;;18.24;27.05;99337.59;4457853;32;34694;-77
2022/04/21 13:00:03;;;;;;;6.37;3.72;;;;;;;18.88;26.28;99330.34;4469355;32;34955;-77
2022/04/21 13:02:49;;;;;;;6.22;3.97;;;;;;;19.17;26.43;99328.78;4470177;32;35442;-77
2022/04/21 13:05:54;;;;;;;7.15;3.58;;;;;;;18.69;26.93;99333.19;4469869;32;34189;-76
2022/04/21 13:08:41;;;;;;;6.37;4.05;;;;;;;19.64;26.03;99332.94;4468107;32;35529;-76
2022/04/21 13:11:27;;;;;;;6.45;4.20;;;;;;;19.04;26.84;99331.00;4463739;32;179149;-77
2022/04/21 13:14:14;;;;;;;6.68;3.50;;;;;;;19.28;25.85;99334.47;4467896;32;34813;-77
2022/04/21 13:17:00;;;;;;;7.25;4.03;;;;;;;20.05;25.40;99327.44;4468302;32;34194;-78
2022/04/21 13:19:46;;;;;;;5.85;3.90;;;;;;;19.98;24.96;99330.97;4467450;32;34760;-79
2022/04/21 13:22:33;;;;;;;7.57;4.07;;;;;;;20.63;24.23;99318.44;4467453;32;35048;-79
2022/04/21 13:25:20;;;;;;;5.60;3.42;;;;;;;19.31;25.02;99312.28;4467583;32;34540;-79
2022/04/21 13:28:06;;;;;;;5.32;3.60;;;;;;;20.21;25.22;99310.50;4465619;32;34131;-80
2022/04/21 13:33:58;;;;;;;6.50;4.00;;;;;;;19.62;26.02;99326.97;4461904;32;35537;-79
2022/04/21 13:36:45;;;;;;;6.57;4.00;;;;;;;18.56;27.68;99327.88;4465295;32;34540;-80
2022/04/21 13:39:31;;;;;;;9.32;4.25;;;;;;;18.24;28.19;99335.63;4462241;32;34075;-81
2022/04/21 13:42:19;;;;;;;15.65;5.50;;;;;;;18.26;27.73;99335.28;4463091;32;34548;-81
2022/04/21 13:45:06;;;;;;;12.02;5.00;;;;;;;18.09;27.42;99322.69;4462889;32;34676;-80
2022/04/21 13:48:12;;;;;;;7.35;3.50;;;;;;;18.66;28.40;99315.31;4462681;32;35497;-81
2022/04/21 13:50:59;;;;;;;7.20;4.47;;;;;;;19.04;27.59;99317.09;4461588;32;35270;-80
2022/04/21 13:53:46;;;;;;;9.88;4.35;;;;;;;19.03;27.19;99320.25;4466203;32;34612;-80
2022/04/21 13:56:35;;;;;;;6.85;4.55;;;;;;;18.25;27.52;99331.72;4465938;32;34920;-82
2022/04/21 13:59:21;;;;;;;9.30;4.22;;;;;;;18.84;26.81;99323.94;4466949;32;35095;-80